Time;durP1;ratioP1;P1;durP2;ratioP2;P2;SDS_P1;SDS_P2;PMS_P1;PMS_P2;Temp;Humidity;BMP_temperature;BMP_pressure;BME280_temperature;BME280_humidity;BME280_pressure;Samples;Min_cycle;Max_cycle;Signal;HPM_P1;HPM_P2
2022/09/18 00:01:30;;;;;;;1.63;1.13;;;8.20;99.90;;;;;;5030916;28;20482;-48
2022/09/18 00:03:58;;;;;;;1.83;1.23;;;7.60;99.90;;;;;;5031018;28;20431;-47
2022/09/18 00:06:29;;;;;;;2.17;1.50;;;7.40;99.90;;;;;;5030972;28;20470;-48
2022/09/18 00:08:59;;;;;;;2.03;1.00;;;7.30;99.90;;;;;;5029631;28;20516;-48
2022/09/18 00:11:28;;;;;;;1.40;1.00;;;7.60;99.90;;;;;;5031167;28;20454;-48
2022/09/18 00:13:55;;;;;;;1.60;1.17;;;8.00;99.90;;;;;;5030251;28;21193;-47
2022/09/18 00:16:23;;;;;;;1.33;0.80;;;8.20;99.90;;;;;;5030736;28;20470;-49
2022/09/18 00:18:51;;;;;;;1.40;0.90;;;8.20;99.90;;;;;;5030139;28;20434;-48
2022/09/18 00:21:19;;;;;;;1.40;0.83;;;8.20;99.90;;;;;;5030355;28;20520;-48
2022/09/18 00:23:48;;;;;;;1.60;1.00;;;8.20;99.90;;;;;;5030830;28;20435;-49
2022/09/18 00:26:17;;;;;;;1.60;0.60;;;8.50;99.90;;;;;;5030846;28;20482;-47
2022/09/18 00:28:44;;;;;;;1.60;0.93;;;8.50;99.90;;;;;;5030100;28;20894;-47
2022/09/18 00:31:13;;;;;;;1.40;0.70;;;8.40;99.90;;;;;;5030868;28;20451;-48
2022/09/18 00:33:41;;;;;;;1.40;0.80;;;8.20;99.90;;;;;;5029503;28;20488;-47
2022/09/18 00:36:10;;;;;;;2.13;1.10;;;7.80;99.90;;;;;;5030746;28;20505;-47
2022/09/18 00:38:37;;;;;;;1.53;1.00;;;8.00;99.90;;;;;;5030463;28;20446;-47
2022/09/18 00:41:08;;;;;;;3.03;0.90;;;8.10;99.90;;;;;;5030362;28;20497;-48
2022/09/18 00:43:36;;;;;;;1.47;0.77;;;8.10;99.90;;;;;;5030476;28;20458;-48
2022/09/18 00:46:07;;;;;;;1.80;0.83;;;8.50;99.90;;;;;;5030404;28;20464;-47
2022/09/18 00:48:40;;;;;;;1.30;0.60;;;8.70;99.90;;;;;;5030427;28;20442;-47
2022/09/18 00:51:07;;;;;;;3.20;0.80;;;8.70;99.90;;;;;;5030562;28;21013;-48
2022/09/18 00:53:39;;;;;;;1.17;0.60;;;7.70;99.90;;;;;;5030421;28;20475;-48
2022/09/18 00:56:08;;;;;;;1.30;0.47;;;7.90;99.90;;;;;;5030653;28;20470;-49
2022/09/18 00:58:36;;;;;;;1.80;0.63;;;8.00;99.90;;;;;;5030826;28;20463;-49
2022/09/18 01:01:03;;;;;;;1.73;0.87;;;8.00;99.90;;;;;;5029903;28;20474;-48
2022/09/18 01:03:30;;;;;;;2.13;0.93;;;8.10;99.90;;;;;;5030435;28;20868;-47
2022/09/18 01:06:07;;;;;;;1.50;0.60;;;8.50;99.90;;;;;;5030816;28;20532;-47
2022/09/18 01:08:42;;;;;;;1.57;0.70;;;8.70;99.90;;;;;;5029980;28;20507;-48
2022/09/18 01:11:20;;;;;;;1.07;0.60;;;8.40;99.90;;;;;;5030262;28;20804;-47
2022/09/18 01:13:59;;;;;;;1.30;0.80;;;8.20;99.90;;;;;;5030383;28;20442;-47
2022/09/18 01:16:32;;;;;;;0.90;0.50;;;8.30;99.90;;;;;;5030650;28;20478;-48
2022/09/18 01:19:08;;;;;;;1.87;0.60;;;8.30;99.90;;;;;;5029953;28;20461;-47
2022/09/18 01:21:41;;;;;;;1.40;0.70;;;8.30;99.90;;;;;;5030022;28;20481;-48
2022/09/18 01:24:35;;;;;;;1.00;0.60;;;8.20;99.90;;;;;;5030104;28;20430;-49
2022/09/18 01:27:06;;;;;;;2.40;0.60;;;8.20;99.90;;;;;;5032977;28;20462;-48
2022/09/18 01:29:43;;;;;;;1.23;0.70;;;8.20;99.90;;;;;;5033131;28;20509;-49
2022/09/18 01:32:19;;;;;;;1.30;0.50;;;8.10;99.90;;;;;;5033526;28;20849;-48
2022/09/18 01:34:54;;;;;;;1.40;0.60;;;8.20;99.90;;;;;;5032575;28;20955;-48
2022/09/18 01:37:32;;;;;;;0.90;0.50;;;8.20;99.90;;;;;;5033579;28;20545;-48
2022/09/18 01:40:09;;;;;;;1.67;0.50;;;8.30;99.90;;;;;;5033019;28;20454;-48
2022/09/18 01:42:37;;;;;;;1.03;0.50;;;8.30;99.90;;;;;;5033509;28;20470;-48
2022/09/18 01:45:10;;;;;;;1.30;0.43;;;8.40;99.90;;;;;;5033535;28;20447;-48
2022/09/18 01:47:45;;;;;;;1.10;0.60;;;8.10;99.90;;;;;;5033417;28;20470;-48
2022/09/18 01:50:14;;;;;;;1.00;0.60;;;8.20;99.90;;;;;;5032851;28;20529;-50
2022/09/18 01:52:46;;;;;;;0.90;0.50;;;8.10;99.90;;;;;;5033458;28;20451;-48
2022/09/18 01:55:17;;;;;;;1.00;0.53;;;8.20;99.90;;;;;;5033466;28;20453;-48
2022/09/18 01:57:50;;;;;;;1.00;0.63;;;8.50;99.90;;;;;;5033063;28;20856;-48
2022/09/18 02:00:20;;;;;;;1.30;0.57;;;8.10;99.90;;;;;;5032707;28;21014;-48
2022/09/18 02:02:52;;;;;;;1.00;0.50;;;8.30;99.90;;;;;;5032911;28;20556;-48
2022/09/18 02:05:23;;;;;;;0.90;0.40;;;8.40;99.90;;;;;;5032947;28;20923;-48
2022/09/18 02:07:58;;;;;;;1.30;0.70;;;8.60;99.90;;;;;;5032392;28;20920;-48
2022/09/18 02:10:28;;;;;;;2.60;0.60;;;8.70;99.90;;;;;;5032963;28;20507;-49
2022/09/18 02:12:56;;;;;;;1.10;0.50;;;8.70;99.90;;;;;;5033663;28;20447;-49
2022/09/18 02:15:27;;;;;;;1.50;1.00;;;8.50;99.90;;;;;;5032906;28;20509;-50
2022/09/18 02:17:59;;;;;;;0.97;0.40;;;8.40;99.90;;;;;;5032986;28;20970;-49
2022/09/18 02:20:29;;;;;;;1.30;0.50;;;8.60;99.90;;;;;;5032309;28;20458;-49
2022/09/18 02:23:00;;;;;;;1.00;0.50;;;8.60;99.90;;;;;;5032825;28;20482;-50
2022/09/18 02:25:31;;;;;;;0.93;0.40;;;8.60;99.90;;;;;;5032738;28;20458;-48
2022/09/18 02:27:58;;;;;;;1.07;0.50;;;8.20;99.90;;;;;;5032754;28;20786;-48
2022/09/18 02:30:28;;;;;;;2.03;0.60;;;8.10;99.90;;;;;;5032377;28;20478;-48
2022/09/18 02:32:57;;;;;;;1.67;0.50;;;8.30;99.90;;;;;;5032676;28;20508;-48
2022/09/18 02:35:30;;;;;;;0.90;0.40;;;8.50;99.90;;;;;;5031705;28;20549;-48
2022/09/18 02:38:04;;;;;;;0.90;0.40;;;8.20;99.90;;;;;;5032588;28;20450;-49
2022/09/18 02:40:45;;;;;;;1.20;0.50;;;8.20;99.90;;;;;;5031962;28;20457;-48
2022/09/18 02:43:26;;;;;;;0.90;0.50;;;8.20;99.90;;;;;;5032376;28;20470;-48
2022/09/18 02:46:03;;;;;;;1.00;0.53;;;8.10;99.90;;;;;;5032112;28;20458;-48
2022/09/18 02:48:53;;;;;;;0.90;0.50;;;8.50;99.90;;;;;;5032152;28;20431;-48
2022/09/18 02:51:31;;;;;;;1.00;0.50;;;8.50;99.90;;;;;;5032394;28;20547;-50
2022/09/18 02:54:04;;;;;;;1.03;0.43;;;8.20;99.90;;;;;;5032751;28;20470;-47
2022/09/18 02:56:38;;;;;;;1.00;0.57;;;7.90;99.90;;;;;;5031900;28;21271;-48
2022/09/18 02:59:10;;;;;;;0.90;0.40;;;8.20;99.90;;;;;;5031275;28;20450;-48
2022/09/18 03:01:40;;;;;;;0.90;0.50;;;8.30;99.90;;;;;;5031820;28;20538;-48
2022/09/18 03:04:11;;;;;;;1.97;0.60;;;7.60;99.90;;;;;;5032027;28;20447;-48
2022/09/18 03:06:38;;;;;;;1.00;0.40;;;7.60;99.90;;;;;;5032090;28;20478;-48
2022/09/18 03:09:05;;;;;;;1.73;0.60;;;8.00;99.90;;;;;;5030740;28;20524;-48
2022/09/18 03:11:32;;;;;;;0.93;0.50;;;8.00;99.90;;;;;;5031976;28;20458;-48
2022/09/18 03:13:59;;;;;;;1.20;0.50;;;8.10;99.90;;;;;;5031876;28;20462;-48
2022/09/18 03:16:26;;;;;;;1.00;0.50;;;8.20;99.90;;;;;;5031486;28;20478;-48
2022/09/18 03:18:56;;;;;;;2.13;0.63;;;8.10;99.90;;;;;;5030884;28;20446;-48
2022/09/18 03:21:23;;;;;;;1.00;0.40;;;7.80;99.90;;;;;;5031472;28;20935;-48
2022/09/18 03:23:50;;;;;;;1.20;0.50;;;8.10;99.90;;;;;;5031353;28;20482;-48
2022/09/18 03:26:17;;;;;;;0.97;0.50;;;8.10;99.90;;;;;;5031634;28;20470;-48
2022/09/18 03:28:44;;;;;;;0.90;0.50;;;8.30;99.90;;;;;;5030951;28;20430;-48
2022/09/18 03:31:12;;;;;;;0.90;0.40;;;8.30;99.90;;;;;;5031511;28;20446;-48
2022/09/18 03:33:39;;;;;;;0.90;0.40;;;8.30;99.90;;;;;;5030163;28;20520;-49
2022/09/18 03:36:08;;;;;;;0.90;0.40;;;8.10;99.90;;;;;;5031274;28;20498;-49
2022/09/18 03:38:36;;;;;;;0.90;0.40;;;8.10;99.90;;;;;;5031445;28;20454;-48
2022/09/18 03:41:03;;;;;;;1.20;0.67;;;8.20;99.90;;;;;;5030944;28;20794;-49
2022/09/18 03:43:30;;;;;;;0.97;0.47;;;8.00;99.90;;;;;;5031114;28;20781;-48
2022/09/18 03:45:57;;;;;;;1.23;0.50;;;8.40;99.90;;;;;;5031039;28;20881;-48
2022/09/18 03:48:24;;;;;;;1.00;0.50;;;8.20;99.90;;;;;;5030992;28;20478;-48
2022/09/18 03:50:51;;;;;;;1.13;0.40;;;8.10;99.90;;;;;;5030947;28;20446;-48
2022/09/18 03:53:20;;;;;;;1.20;0.60;;;7.90;99.90;;;;;;5031483;28;20442;-48
2022/09/18 03:55:49;;;;;;;1.27;0.80;;;8.40;99.90;;;;;;5031339;28;20866;-48
2022/09/18 03:58:16;;;;;;;1.00;0.40;;;8.40;99.90;;;;;;5031032;28;20463;-48
2022/09/18 04:00:44;;;;;;;1.40;0.60;;;8.30;99.90;;;;;;5030391;28;20438;-48
2022/09/18 04:03:11;;;;;;;1.00;0.50;;;8.00;99.90;;;;;;5031052;28;20531;-48
2022/09/18 04:05:38;;;;;;;1.67;0.50;;;8.30;99.90;;;;;;5030876;28;20516;-48
2022/09/18 04:08:05;;;;;;;1.10;0.70;;;8.30;99.90;;;;;;5030526;28;20505;-47
2022/09/18 04:10:33;;;;;;;1.10;0.50;;;8.40;99.90;;;;;;5030239;28;20443;-47
2022/09/18 04:13:00;;;;;;;1.10;0.60;;;8.20;99.90;;;;;;5030722;28;20443;-50
2022/09/18 04:15:27;;;;;;;1.00;0.50;;;8.40;99.90;;;;;;5030966;28;20442;-48
2022/09/18 04:17:55;;;;;;;1.00;0.53;;;8.60;99.90;;;;;;5032008;28;20860;-48
2022/09/18 04:20:21;;;;;;;1.33;0.70;;;8.50;99.90;;;;;;5030271;28;20450;-48
2022/09/18 04:22:49;;;;;;;1.77;0.43;;;8.60;99.90;;;;;;5031026;28;20532;-49
2022/09/18 04:25:16;;;;;;;0.90;0.50;;;8.20;99.90;;;;;;5029398;28;20465;-49
2022/09/18 04:27:47;;;;;;;0.90;0.40;;;8.50;99.90;;;;;;5029188;28;20462;-48
2022/09/18 04:30:15;;;;;;;1.00;0.40;;;8.40;99.90;;;;;;5029554;28;20784;-49
2022/09/18 04:32:43;;;;;;;1.10;0.60;;;8.30;99.90;;;;;;5030778;28;20824;-50
2022/09/18 04:35:10;;;;;;;1.20;0.80;;;8.30;99.90;;;;;;5028692;28;20476;-49
2022/09/18 04:37:37;;;;;;;1.30;1.10;;;8.40;99.90;;;;;;5028901;28;20474;-49
2022/09/18 04:40:06;;;;;;;1.40;0.80;;;8.20;99.90;;;;;;5029019;28;20955;-49
2022/09/18 04:42:33;;;;;;;1.00;0.70;;;8.10;99.90;;;;;;5030658;28;20606;-48
2022/09/18 04:45:01;;;;;;;1.50;1.00;;;8.30;99.90;;;;;;5030458;28;20446;-48
2022/09/18 04:47:29;;;;;;;1.50;0.83;;;8.60;99.90;;;;;;5030572;28;20521;-48
2022/09/18 04:49:56;;;;;;;1.30;0.80;;;8.00;99.90;;;;;;5029897;28;20549;-48
2022/09/18 04:52:23;;;;;;;1.40;0.70;;;7.90;99.90;;;;;;5030228;28;20509;-50
2022/09/18 04:54:50;;;;;;;1.20;0.70;;;7.90;99.90;;;;;;5030323;28;20535;-49
2022/09/18 04:57:17;;;;;;;1.10;0.80;;;8.40;99.90;;;;;;5031242;28;20880;-49
2022/09/18 04:59:44;;;;;;;1.00;0.50;;;8.30;99.90;;;;;;5030077;28;20435;-48
2022/09/18 05:02:13;;;;;;;0.90;0.60;;;8.30;99.90;;;;;;5033440;28;20881;-48
2022/09/18 05:04:40;;;;;;;1.20;0.70;;;8.20;99.90;;;;;;5034426;28;20450;-50
2022/09/18 05:07:07;;;;;;;1.27;0.83;;;8.20;99.90;;;;;;5033689;28;21050;-46
2022/09/18 05:09:34;;;;;;;1.50;1.00;;;7.90;99.90;;;;;;5033819;28;20863;-46
2022/09/18 05:12:01;;;;;;;1.40;0.80;;;8.00;99.90;;;;;;5033907;28;20434;-48
2022/09/18 05:14:28;;;;;;;1.73;1.23;;;8.10;99.90;;;;;;5034134;28;20840;-46
2022/09/18 05:16:55;;;;;;;1.10;0.70;;;8.30;99.90;;;;;;5033956;28;20474;-47
2022/09/18 05:19:24;;;;;;;1.60;1.00;;;8.20;99.90;;;;;;5033160;28;20525;-46
2022/09/18 05:21:51;;;;;;;1.50;0.80;;;8.00;99.90;;;;;;5033434;28;20438;-46
2022/09/18 05:24:18;;;;;;;1.70;0.70;;;7.80;99.90;;;;;;5033630;28;20971;-46
2022/09/18 05:26:45;;;;;;;1.20;0.93;;;7.50;99.90;;;;;;5033945;28;21102;-47
2022/09/18 05:29:12;;;;;;;1.50;0.67;;;7.30;99.90;;;;;;5032934;28;20882;-46
2022/09/18 05:31:40;;;;;;;1.57;1.00;;;7.10;99.90;;;;;;5033899;28;20448;-46
2022/09/18 05:34:07;;;;;;;1.83;0.63;;;7.40;99.90;;;;;;5032762;28;20446;-46
2022/09/18 05:36:36;;;;;;;1.20;0.83;;;7.50;99.90;;;;;;5033724;28;20466;-46
2022/09/18 05:39:03;;;;;;;2.13;1.00;;;8.00;99.90;;;;;;5032847;28;20477;-47
2022/09/18 05:41:30;;;;;;;1.17;0.90;;;8.30;99.90;;;;;;5033691;28;20819;-47
2022/09/18 05:43:57;;;;;;;1.30;1.00;;;8.60;99.90;;;;;;5033163;28;20532;-46
2022/09/18 05:46:24;;;;;;;2.43;1.17;;;8.60;99.90;;;;;;5033465;28;20462;-46
2022/09/18 05:48:51;;;;;;;1.53;1.00;;;8.50;99.90;;;;;;5032957;28;20447;-46
2022/09/18 05:51:18;;;;;;;1.27;0.73;;;8.00;99.90;;;;;;5033319;28;20932;-46
2022/09/18 05:53:47;;;;;;;1.57;0.90;;;7.90;99.90;;;;;;5033509;28;20455;-46
2022/09/18 05:56:15;;;;;;;1.90;0.90;;;8.00;99.90;;;;;;5033396;28;20477;-46
2022/09/18 05:58:42;;;;;;;2.93;2.33;;;8.20;99.90;;;;;;5032856;28;20457;-45
2022/09/18 06:01:10;;;;;;;13.63;3.70;;;7.90;99.90;;;;;;5033129;28;20442;-46
2022/09/18 06:03:37;;;;;;;2.20;1.67;;;7.90;99.90;;;;;;5032971;28;20471;-46
2022/09/18 06:06:04;;;;;;;4.00;2.73;;;7.80;99.90;;;;;;5032999;28;20478;-46
2022/09/18 06:08:31;;;;;;;3.70;2.87;;;7.70;99.90;;;;;;5032624;28;20497;-46
2022/09/18 06:11:01;;;;;;;4.33;2.20;;;7.80;99.90;;;;;;5032266;28;20451;-48
2022/09/18 06:13:28;;;;;;;2.90;2.17;;;7.80;99.90;;;;;;5033096;28;20533;-46
2022/09/18 06:15:57;;;;;;;3.13;2.10;;;7.70;99.90;;;;;;5032557;28;20478;-46
2022/09/18 06:18:24;;;;;;;2.53;1.80;;;7.70;99.90;;;;;;5032871;28;20460;-46
2022/09/18 06:20:53;;;;;;;2.07;1.57;;;7.40;99.90;;;;;;5032166;28;20442;-46
2022/09/18 06:23:21;;;;;;;3.30;2.53;;;7.30;99.90;;;;;;5033258;28;21066;-47
2022/09/18 06:25:48;;;;;;;2.40;1.90;;;7.00;99.90;;;;;;5032554;28;20545;-47
2022/09/18 06:28:17;;;;;;;2.57;1.60;;;6.90;99.90;;;;;;5032835;28;20449;-48
2022/09/18 06:30:44;;;;;;;2.20;1.60;;;7.00;99.90;;;;;;5032241;28;20452;-47
2022/09/18 06:33:11;;;;;;;2.00;1.40;;;7.30;99.90;;;;;;5032761;28;20627;-48
2022/09/18 06:35:38;;;;;;;1.67;1.43;;;7.10;99.90;;;;;;5030500;28;21027;-49
2022/09/18 06:38:07;;;;;;;1.80;1.27;;;7.30;99.90;;;;;;5032337;28;20504;-49
2022/09/18 06:40:34;;;;;;;1.87;1.43;;;7.70;99.90;;;;;;5031977;28;20457;-48
2022/09/18 06:43:02;;;;;;;2.00;1.53;;;7.90;99.90;;;;;;5032203;28;20501;-48
2022/09/18 06:45:31;;;;;;;2.60;1.37;;;7.80;99.90;;;;;;5032501;28;20508;-48
2022/09/18 06:48:01;;;;;;;3.00;1.63;;;7.70;99.90;;;;;;5032079;28;20473;-49
2022/09/18 06:50:28;;;;;;;2.90;1.40;;;7.60;99.90;;;;;;5032265;28;21010;-49
2022/09/18 06:52:55;;;;;;;1.47;1.00;;;7.80;99.90;;;;;;5032799;28;20500;-49
2022/09/18 06:55:22;;;;;;;1.73;1.00;;;8.00;99.90;;;;;;5032355;28;20528;-49
2022/09/18 06:57:54;;;;;;;2.13;1.10;;;8.20;99.90;;;;;;5032529;28;20524;-50
2022/09/18 07:00:21;;;;;;;1.80;1.33;;;8.10;99.90;;;;;;5031502;28;20457;-49
2022/09/18 07:02:56;;;;;;;1.90;1.20;;;8.40;99.90;;;;;;5032156;28;20446;-49
2022/09/18 07:05:24;;;;;;;2.67;1.53;;;8.60;99.90;;;;;;5031865;28;20430;-50
2022/09/18 07:07:51;;;;;;;5.90;3.07;;;8.70;99.90;;;;;;5032059;28;20501;-49
2022/09/18 07:10:18;;;;;;;2.27;1.40;;;8.90;99.90;;;;;;5031226;28;20506;-50
2022/09/18 07:12:47;;;;;;;5.23;1.43;;;8.90;99.90;;;;;;5032341;28;20830;-49
2022/09/18 07:15:15;;;;;;;1.70;1.20;;;9.00;99.90;;;;;;5031632;28;20441;-48
2022/09/18 07:17:42;;;;;;;3.80;1.30;;;9.10;99.90;;;;;;5032206;28;20462;-51
2022/09/18 07:20:12;;;;;;;1.70;1.30;;;9.00;99.90;;;;;;5031353;28;20451;-49
2022/09/18 07:22:39;;;;;;;2.10;1.30;;;9.00;99.90;;;;;;5031525;28;20435;-49
2022/09/18 07:25:08;;;;;;;1.67;1.10;;;9.10;99.90;;;;;;5030918;28;20955;-50
2022/09/18 07:27:35;;;;;;;2.40;1.07;;;9.10;99.90;;;;;;5031549;28;21106;-49
2022/09/18 07:30:02;;;;;;;3.23;2.03;;;9.00;99.90;;;;;;5031006;28;20508;-49
2022/09/18 07:32:29;;;;;;;2.10;1.50;;;9.00;99.90;;;;;;5031727;28;20450;-49
2022/09/18 07:34:56;;;;;;;2.20;1.93;;;8.80;99.90;;;;;;5029823;28;20993;-50
2022/09/18 07:37:24;;;;;;;12.43;8.03;;;9.10;99.90;;;;;;5031489;28;20991;-50
2022/09/18 07:39:52;;;;;;;12.90;9.40;;;9.30;99.90;;;;;;5030699;28;20935;-49
2022/09/18 07:42:19;;;;;;;5.60;4.00;;;9.30;99.90;;;;;;5031763;28;20489;-48
2022/09/18 07:44:46;;;;;;;1.33;1.23;;;9.30;99.90;;;;;;5031218;28;20629;-49
2022/09/18 07:47:13;;;;;;;2.50;1.40;;;9.50;99.90;;;;;;5031209;28;20518;-48
2022/09/18 07:49:41;;;;;;;1.70;1.23;;;9.20;99.90;;;;;;5030750;28;20807;-49
2022/09/18 07:52:08;;;;;;;2.00;1.50;;;8.90;99.90;;;;;;5031534;28;20470;-51
2022/09/18 07:54:37;;;;;;;2.90;2.07;;;8.80;99.90;;;;;;5031175;28;20489;-49
2022/09/18 07:57:04;;;;;;;2.70;1.80;;;8.90;99.90;;;;;;5031249;28;20494;-49
2022/09/18 07:59:31;;;;;;;2.50;1.60;;;8.90;99.90;;;;;;5030426;28;20820;-49
2022/09/18 08:01:58;;;;;;;1.70;1.60;;;8.80;99.90;;;;;;5031182;28;20442;-48
2022/09/18 08:04:25;;;;;;;2.23;1.67;;;9.00;99.90;;;;;;5030800;28;20470;-49
2022/09/18 08:06:53;;;;;;;2.57;1.40;;;8.70;99.90;;;;;;5030594;28;20819;-50
2022/09/18 08:09:20;;;;;;;2.00;1.70;;;8.70;99.90;;;;;;5029971;28;20442;-48
2022/09/18 08:11:51;;;;;;;3.00;1.80;;;8.70;99.90;;;;;;5030908;28;20982;-49
2022/09/18 08:14:18;;;;;;;2.53;1.20;;;8.70;99.90;;;;;;5031308;28;20454;-49
2022/09/18 08:16:45;;;;;;;1.93;1.50;;;8.80;99.90;;;;;;5030727;28;20471;-49
2022/09/18 08:19:12;;;;;;;2.53;1.70;;;8.70;99.90;;;;;;5030192;28;20431;-47
2022/09/18 08:21:39;;;;;;;2.93;1.23;;;8.60;99.90;;;;;;5031149;28;20540;-48
2022/09/18 08:24:07;;;;;;;1.83;1.30;;;9.00;99.90;;;;;;5030827;28;20474;-50
2022/09/18 08:26:37;;;;;;;1.70;1.00;;;9.20;99.90;;;;;;5030694;28;21060;-49
2022/09/18 08:29:06;;;;;;;2.43;1.13;;;9.40;99.90;;;;;;5030217;28;20950;-49
2022/09/18 08:31:33;;;;;;;1.93;1.40;;;9.80;99.90;;;;;;5030480;28;20431;-49
2022/09/18 08:34:00;;;;;;;1.73;1.27;;;9.10;99.90;;;;;;5029184;28;21005;-49
2022/09/18 08:36:27;;;;;;;2.17;1.10;;;9.30;99.90;;;;;;5034424;28;20538;-50
2022/09/18 08:38:54;;;;;;;1.50;1.23;;;9.40;99.90;;;;;;5034074;28;20474;-48
2022/09/18 08:41:37;;;;;;;2.53;1.33;;;9.40;99.90;;;;;;5034833;28;20438;-50
2022/09/18 08:44:10;;;;;;;1.90;1.50;;;9.70;99.90;;;;;;5035073;28;20493;-48
2022/09/18 08:46:40;;;;;;;1.47;1.00;;;9.80;99.90;;;;;;5035188;28;20466;-49
2022/09/18 08:49:24;;;;;;;1.87;1.20;;;9.80;99.90;;;;;;5034151;28;20928;-51
2022/09/18 08:51:57;;;;;;;1.40;1.00;;;9.90;99.90;;;;;;5035034;28;20430;-48
2022/09/18 08:54:44;;;;;;;2.20;1.23;;;9.90;99.90;;;;;;5034516;28;20439;-50
2022/09/18 08:57:17;;;;;;;1.60;1.37;;;9.90;99.90;;;;;;5030626;28;20497;-50
2022/09/18 08:59:49;;;;;;;2.33;1.70;;;10.00;99.90;;;;;;5034689;28;20496;-49
2022/09/18 09:02:23;;;;;;;2.83;2.00;;;10.20;99.90;;;;;;5035129;28;20942;-48
2022/09/18 09:04:52;;;;;;;2.20;1.17;;;10.10;99.90;;;;;;5034686;28;20481;-49
2022/09/18 09:07:32;;;;;;;2.37;1.50;;;10.20;99.90;;;;;;5034179;28;20810;-49
2022/09/18 09:10:22;;;;;;;1.70;1.17;;;10.20;99.90;;;;;;5034422;28;20478;-49
2022/09/18 09:12:58;;;;;;;2.13;1.50;;;10.20;99.90;;;;;;5034776;28;20451;-49
2022/09/18 09:15:35;;;;;;;2.20;1.50;;;10.30;99.90;;;;;;5035027;28;20856;-49
2022/09/18 09:18:16;;;;;;;2.00;1.20;;;10.40;99.90;;;;;;5034577;28;20450;-50
2022/09/18 09:20:52;;;;;;;1.40;1.20;;;10.40;99.90;;;;;;5033331;28;20552;-51
2022/09/18 09:23:29;;;;;;;1.43;1.30;;;10.50;99.90;;;;;;5034372;28;20446;-50
2022/09/18 09:26:04;;;;;;;2.13;1.47;;;10.10;99.90;;;;;;5032380;28;20485;-51
2022/09/18 09:28:37;;;;;;;2.83;1.77;;;10.00;99.90;;;;;;5029339;28;20450;-49
2022/09/18 09:31:09;;;;;;;2.03;1.00;;;10.10;99.90;;;;;;5034138;28;20461;-50
2022/09/18 09:33:42;;;;;;;8.60;3.10;;;10.10;99.90;;;;;;5032636;28;20457;-49
2022/09/18 09:36:12;;;;;;;18.60;4.80;;;10.20;99.90;;;;;;5034538;28;20508;-51
2022/09/18 09:38:46;;;;;;;3.57;1.87;;;10.60;99.90;;;;;;5032710;28;20456;-50
2022/09/18 09:41:19;;;;;;;19.70;5.37;;;11.00;99.90;;;;;;5034076;28;20478;-49
2022/09/18 09:43:56;;;;;;;7.47;2.47;;;10.90;99.90;;;;;;5034872;28;20455;-49
2022/09/18 09:46:43;;;;;;;4.50;2.43;;;11.00;99.90;;;;;;5033607;28;20580;-49
2022/09/18 09:49:17;;;;;;;2.43;1.70;;;11.10;99.90;;;;;;5035467;28;20436;-50
2022/09/18 09:51:53;;;;;;;6.80;3.23;;;11.00;99.90;;;;;;5033542;28;20447;-50
2022/09/18 09:54:20;;;;;;;7.23;3.10;;;11.30;99.90;;;;;;5033213;28;20522;-49
2022/09/18 09:56:54;;;;;;;3.10;2.00;;;11.20;99.90;;;;;;5032351;28;21157;-49
2022/09/18 09:59:30;;;;;;;10.93;4.00;;;11.60;99.90;;;;;;5031481;28;20455;-48
2022/09/18 10:02:07;;;;;;;6.47;2.67;;;11.40;99.90;;;;;;5032575;28;20446;-49
2022/09/18 10:04:44;;;;;;;2.27;1.30;;;11.30;99.90;;;;;;5031658;28;20489;-50
2022/09/18 10:07:19;;;;;;;4.37;2.90;;;11.30;99.90;;;;;;5032352;28;20462;-50
2022/09/18 10:09:53;;;;;;;6.37;3.07;;;11.10;99.90;;;;;;5032644;28;20438;-49
2022/09/18 10:12:27;;;;;;;4.40;2.80;;;11.00;99.90;;;;;;5033170;28;20435;-48
2022/09/18 10:15:01;;;;;;;3.43;2.30;;;10.80;99.90;;;;;;5032587;28;20481;-50
2022/09/18 10:17:34;;;;;;;5.30;3.17;;;10.80;99.90;;;;;;5032327;28;21486;-50
2022/09/18 10:20:03;;;;;;;3.57;3.07;;;10.80;99.90;;;;;;5030719;28;20483;-50
2022/09/18 10:22:33;;;;;;;3.40;2.20;;;10.90;99.90;;;;;;5031050;28;20454;-49
2022/09/18 10:25:03;;;;;;;3.33;2.97;;;10.90;99.90;;;;;;5031279;28;20466;-48
2022/09/18 10:27:31;;;;;;;3.07;1.70;;;10.90;99.90;;;;;;5031423;28;20555;-49
2022/09/18 10:29:58;;;;;;;1.73;1.50;;;10.90;99.90;;;;;;5031080;28;20525;-50
2022/09/18 10:32:37;;;;;;;2.27;1.43;;;11.00;99.90;;;;;;5032778;28;20431;-49
2022/09/18 10:35:40;;;;;;;1.40;0.90;;;10.90;99.90;;;;;;5031320;28;20445;-49
2022/09/18 10:38:28;;;;;;;2.90;1.27;;;11.00;99.90;;;;;;5032842;28;20494;-49
2022/09/18 10:40:55;;;;;;;2.60;1.47;;;11.30;99.90;;;;;;5032325;28;20786;-49
2022/09/18 10:43:23;;;;;;;1.37;0.90;;;11.10;99.90;;;;;;5032839;28;20483;-49
2022/09/18 10:45:54;;;;;;;1.37;0.93;;;11.10;99.90;;;;;;5032309;28;20488;-49
2022/09/18 10:48:26;;;;;;;1.10;0.70;;;11.10;99.90;;;;;;5032963;28;20509;-51
2022/09/18 10:50:54;;;;;;;2.00;1.00;;;11.20;99.90;;;;;;5031821;28;20520;-51
2022/09/18 10:53:28;;;;;;;1.73;1.10;;;11.00;99.90;;;;;;5032711;28;20513;-49
2022/09/18 10:56:01;;;;;;;1.93;1.33;;;11.30;99.90;;;;;;5032523;28;20468;-49
2022/09/18 10:58:31;;;;;;;1.77;1.30;;;11.10;99.90;;;;;;5032237;28;20439;-48
2022/09/18 11:01:01;;;;;;;1.93;0.90;;;11.20;99.90;;;;;;5032014;28;20485;-51
2022/09/18 11:03:46;;;;;;;1.63;0.93;;;11.30;99.90;;;;;;5032088;28;20505;-49
2022/09/18 11:06:19;;;;;;;2.50;1.73;;;11.50;99.90;;;;;;5030820;28;20490;-49
2022/09/18 11:08:49;;;;;;;1.70;1.20;;;11.10;99.90;;;;;;5031052;28;20512;-46
2022/09/18 11:11:24;;;;;;;2.33;1.20;;;11.10;99.90;;;;;;5032097;28;20437;-48
2022/09/18 11:13:56;;;;;;;1.90;1.30;;;11.30;99.90;;;;;;5032235;28;20508;-49
2022/09/18 11:16:26;;;;;;;2.07;1.40;;;11.40;99.90;;;;;;5031751;28;20470;-48
2022/09/18 11:19:07;;;;;;;1.93;1.23;;;11.40;99.90;;;;;;5031270;28;20507;-49
2022/09/18 11:21:41;;;;;;;3.03;0.97;;;11.40;99.90;;;;;;5032154;28;20503;-49
2022/09/18 11:24:19;;;;;;;2.60;0.93;;;11.50;99.90;;;;;;5032370;28;20532;-49
2022/09/18 11:26:50;;;;;;;1.73;1.10;;;11.30;99.90;;;;;;5032048;28;20500;-49
2022/09/18 11:29:21;;;;;;;1.90;1.10;;;11.10;99.90;;;;;;5030990;28;20506;-49
2022/09/18 11:31:52;;;;;;;2.73;1.27;;;11.10;99.90;;;;;;5031598;28;20435;-49
2022/09/18 11:34:32;;;;;;;2.43;1.50;;;11.20;99.90;;;;;;5030040;28;20527;-49
2022/09/18 11:37:02;;;;;;;1.53;1.10;;;11.30;99.90;;;;;;5031730;28;20566;-49
2022/09/18 11:39:35;;;;;;;3.13;1.90;;;11.40;99.90;;;;;;5030959;28;20488;-50
2022/09/18 11:42:07;;;;;;;1.60;1.30;;;11.20;99.90;;;;;;5031690;28;20450;-49
2022/09/18 11:44:35;;;;;;;3.23;1.40;;;10.70;99.90;;;;;;5031090;28;20888;-48
2022/09/18 11:47:24;;;;;;;3.97;3.57;;;10.80;99.90;;;;;;5031405;28;20475;-49
2022/09/18 11:50:00;;;;;;;2.33;2.13;;;10.80;99.90;;;;;;5030844;28;20957;-50
2022/09/18 11:52:30;;;;;;;1.80;1.47;;;10.90;99.90;;;;;;5031402;28;20426;-51
2022/09/18 11:55:03;;;;;;;2.60;1.30;;;11.00;99.90;;;;;;5031434;28;20501;-50
2022/09/18 11:57:35;;;;;;;2.80;1.33;;;11.10;99.90;;;;;;5031127;28;20482;-49
2022/09/18 12:00:07;;;;;;;1.73;1.63;;;11.00;99.90;;;;;;5030633;28;20537;-49
2022/09/18 12:02:39;;;;;;;1.80;1.50;;;11.20;99.90;;;;;;5031066;28;20447;-49
2022/09/18 12:05:20;;;;;;;3.50;2.40;;;11.30;99.90;;;;;;5031827;28;20479;-49
2022/09/18 12:07:58;;;;;;;2.43;1.53;;;11.20;99.90;;;;;;5030347;28;20460;-49
2022/09/18 12:10:33;;;;;;;2.03;1.57;;;11.40;99.90;;;;;;5030241;28;20514;-49
2022/09/18 12:13:18;;;;;;;2.27;1.60;;;11.40;99.90;;;;;;5031022;28;21016;-49
2022/09/18 12:15:53;;;;;;;2.33;1.37;;;11.60;99.90;;;;;;5030722;28;20463;-49
2022/09/18 12:18:25;;;;;;;2.03;1.57;;;11.70;99.90;;;;;;5031418;28;20450;-51
2022/09/18 12:20:59;;;;;;;2.80;1.70;;;11.50;99.90;;;;;;5030299;28;20505;-49
2022/09/18 12:23:27;;;;;;;1.63;1.30;;;11.40;99.90;;;;;;5031049;28;20828;-48
2022/09/18 12:26:07;;;;;;;2.13;1.57;;;11.60;99.90;;;;;;5030800;28;20474;-49
2022/09/18 12:28:42;;;;;;;3.20;2.03;;;11.70;99.90;;;;;;5031229;28;20478;-49
2022/09/18 12:31:15;;;;;;;2.93;1.50;;;11.70;99.90;;;;;;5030830;28;20466;-49
2022/09/18 12:33:53;;;;;;;2.27;1.30;;;11.70;99.90;;;;;;5029082;28;20431;-50
2022/09/18 12:36:48;;;;;;;2.07;1.40;;;11.80;99.90;;;;;;5030785;28;20480;-49
2022/09/18 12:39:30;;;;;;;1.90;1.50;;;11.70;99.90;;;;;;5029949;28;20504;-49
2022/09/18 12:42:11;;;;;;;2.13;1.40;;;11.70;99.90;;;;;;5030484;28;20481;-49
2022/09/18 12:45:06;;;;;;;1.60;1.03;;;11.80;99.90;;;;;;5030653;28;20475;-49
2022/09/18 12:47:46;;;;;;;1.57;1.30;;;11.80;99.90;;;;;;5004629;28;20484;-49
2022/09/18 12:50:24;;;;;;;2.40;1.23;;;11.90;99.90;;;;;;5029995;28;20443;-51
2022/09/18 12:53:03;;;;;;;1.30;1.07;;;12.00;99.90;;;;;;5030751;28;20447;-49
2022/09/18 12:55:42;;;;;;;1.50;1.03;;;12.00;99.90;;;;;;5030596;28;20448;-50
2022/09/18 12:58:23;;;;;;;1.53;1.20;;;12.10;99.90;;;;;;5030715;28;20443;-49
2022/09/18 13:00:52;;;;;;;1.30;0.80;;;12.10;99.90;;;;;;5029959;28;20487;-49
2022/09/18 13:03:25;;;;;;;2.03;1.10;;;11.80;99.90;;;;;;5030677;28;20442;-49
2022/09/18 13:05:57;;;;;;;1.80;1.10;;;11.50;99.90;;;;;;5030259;28;20486;-49
2022/09/18 13:08:30;;;;;;;1.50;1.20;;;11.50;99.90;;;;;;5030054;28;20483;-50
2022/09/18 13:11:01;;;;;;;1.30;0.70;;;11.30;99.90;;;;;;5030151;28;20484;-49
2022/09/18 13:13:39;;;;;;;1.50;1.10;;;11.40;99.90;;;;;;5030809;28;20453;-51